createdAt,value
2022-10-14T00:01:04.805Z,98.20
2022-10-14T00:03:35.795Z,98.20
2022-10-14T00:06:07.073Z,98.10
2022-10-14T00:08:36.416Z,97.80
2022-10-14T00:11:10.936Z,98.20
2022-10-14T00:13:40.576Z,98.10
2022-10-14T00:16:17.796Z,97.70
2022-10-14T00:18:46.961Z,97.80
2022-10-14T00:21:16.556Z,97.80
2022-10-14T00:23:45.968Z,97.70
2022-10-14T00:26:22.369Z,97.80
2022-10-14T00:28:52.287Z,97.80
2022-10-14T00:31:22.689Z,98.10
2022-10-14T00:33:51.792Z,98.10
2022-10-14T00:36:23.089Z,97.70
2022-10-14T00:38:53.294Z,97.60
2022-10-14T00:41:26.774Z,97.80
2022-10-14T00:44:00.447Z,97.60
2022-10-14T00:46:31.636Z,98.10
2022-10-14T00:49:08.193Z,98.00
2022-10-14T00:51:38.706Z,97.70
2022-10-14T00:54:08.118Z,97.50
2022-10-14T00:56:39.190Z,98.00
2022-10-14T00:59:13.470Z,98.50
2022-10-14T01:01:42.727Z,98.50
2022-10-14T01:04:12.058Z,98.40
2022-10-14T01:06:50.012Z,98.20
2022-10-14T01:09:28.951Z,97.90
2022-10-14T01:12:28.180Z,97.90
2022-10-14T01:15:05.331Z,97.60
2022-10-14T01:17:44.485Z,97.70
2022-10-14T01:20:38.989Z,97.60
2022-10-14T01:23:29.748Z,97.30
2022-10-14T01:26:10.908Z,97.20
2022-10-14T01:28:52.501Z,97.30
2022-10-14T01:31:25.660Z,97.30
2022-10-14T01:34:00.099Z,97.30
2022-10-14T01:36:38.534Z,97.30
2022-10-14T01:39:15.144Z,97.20
2022-10-14T01:41:49.440Z,97.30
2022-10-14T01:44:21.297Z,97.50
2022-10-14T01:46:55.430Z,97.70
2022-10-14T01:49:30.186Z,97.90
2022-10-14T01:52:04.184Z,98.00
2022-10-14T01:54:37.761Z,97.90
2022-10-14T01:57:11.736Z,97.80
2022-10-14T01:59:43.195Z,97.60
2022-10-14T02:02:15.064Z,97.50
2022-10-14T02:04:44.216Z,97.60
2022-10-14T02:07:18.854Z,97.50
2022-10-14T02:09:58.085Z,97.40
2022-10-14T02:12:39.965Z,97.50
2022-10-14T02:15:19.359Z,97.60
2022-10-14T02:17:56.191Z,97.60
2022-10-14T02:20:29.941Z,97.60
2022-10-14T02:23:02.076Z,97.90
2022-10-14T02:25:36.194Z,97.90
2022-10-14T02:28:08.763Z,97.80
2022-10-14T02:30:42.099Z,97.70
2022-10-14T02:33:13.654Z,97.80
2022-10-14T02:35:44.742Z,98.00
2022-10-14T02:38:13.846Z,98.30
2022-10-14T02:40:47.235Z,98.30
2022-10-14T02:43:16.392Z,98.50
2022-10-14T02:45:45.899Z,98.50
2022-10-14T02:48:16.826Z,98.20
2022-10-14T02:50:46.197Z,98.10
2022-10-14T02:53:18.800Z,97.80
2022-10-14T02:55:48.175Z,97.80
2022-10-14T02:58:17.396Z,97.60
2022-10-14T03:00:46.504Z,97.70
2022-10-14T03:03:17.063Z,97.90
2022-10-14T03:05:46.314Z,98.10
2022-10-14T03:08:16.449Z,98.20
2022-10-14T03:10:49.171Z,98.30
2022-10-14T03:13:18.878Z,98.60
2022-10-14T03:15:50.975Z,98.40
2022-10-14T03:18:23.110Z,98.30
2022-10-14T03:20:57.237Z,98.50
2022-10-14T03:23:33.430Z,98.90
2022-10-14T03:26:02.653Z,99.30
2022-10-14T03:28:37.436Z,99.40
2022-10-14T03:31:26.945Z,99.90
2022-10-14T03:34:29.535Z,99.90
2022-10-14T03:37:07.988Z,99.90
2022-10-14T03:39:46.303Z,99.90
2022-10-14T03:42:16.750Z,99.90
2022-10-14T03:44:49.438Z,99.90
2022-10-14T03:47:28.724Z,99.90
2022-10-14T03:49:59.359Z,99.90
2022-10-14T03:52:55.464Z,99.90
2022-10-14T03:55:35.573Z,99.90
2022-10-14T03:58:06.852Z,99.90
2022-10-14T04:00:37.478Z,99.90
2022-10-14T04:03:35.935Z,99.90
2022-10-14T04:06:06.858Z,99.90
2022-10-14T04:08:36.010Z,99.90
2022-10-14T04:11:17.626Z,99.90
2022-10-14T04:13:47.416Z,99.90
2022-10-14T04:16:17.016Z,99.90
2022-10-14T04:19:09.840Z,99.90
2022-10-14T04:21:40.426Z,99.90
2022-10-14T04:24:11.218Z,99.90
2022-10-14T04:26:47.588Z,99.90
2022-10-14T04:29:24.765Z,99.90
2022-10-14T04:31:59.928Z,99.90
2022-10-14T04:34:29.157Z,99.90
2022-10-14T04:36:59.642Z,99.90
2022-10-14T04:39:51.579Z,99.90
2022-10-14T04:42:21.259Z,99.90
2022-10-14T04:44:54.001Z,99.90
2022-10-14T04:47:32.815Z,99.90
2022-10-14T04:50:04.381Z,99.90
2022-10-14T04:52:36.543Z,99.90
2022-10-14T04:55:13.731Z,99.90
2022-10-14T04:57:45.051Z,99.90
2022-10-14T05:00:17.738Z,99.90
2022-10-14T05:02:54.944Z,99.90
2022-10-14T05:05:31.093Z,99.90
2022-10-14T05:08:04.401Z,99.90
2022-10-14T05:10:40.463Z,99.90
2022-10-14T05:13:13.774Z,99.90
2022-10-14T05:15:54.898Z,99.90
2022-10-14T05:18:24.475Z,99.90
2022-10-14T05:21:10.464Z,99.90
2022-10-14T05:24:19.195Z,99.90
2022-10-14T05:26:49.485Z,99.90
2022-10-14T05:29:19.157Z,99.90
2022-10-14T05:31:51.422Z,99.90
2022-10-14T05:34:28.214Z,99.90
2022-10-14T05:36:58.976Z,99.90
2022-10-14T05:39:32.249Z,99.90
2022-10-14T05:42:02.833Z,99.90
2022-10-14T05:44:33.075Z,99.90
2022-10-14T05:47:02.244Z,99.90
2022-10-14T05:49:31.655Z,99.90
2022-10-14T05:52:05.523Z,99.90
2022-10-14T05:54:37.091Z,99.90
2022-10-14T05:57:08.380Z,99.90
2022-10-14T05:59:37.843Z,99.90
2022-10-14T06:02:07.097Z,99.90
2022-10-14T06:04:36.651Z,99.90
2022-10-14T06:07:06.355Z,99.90
2022-10-14T06:09:39.782Z,99.90
2022-10-14T06:12:09.859Z,99.90
2022-10-14T06:14:40.001Z,99.90
2022-10-14T06:17:09.544Z,99.90
2022-10-14T06:19:39.680Z,99.90
2022-10-14T06:22:08.864Z,99.90
2022-10-14T06:24:39.543Z,99.90
2022-10-14T06:27:08.745Z,99.90
2022-10-14T06:29:39.199Z,99.90
2022-10-14T06:32:09.450Z,99.90
2022-10-14T06:34:38.587Z,99.90
2022-10-14T06:37:07.579Z,99.90
2022-10-14T06:39:36.595Z,99.90
2022-10-14T06:42:12.082Z,99.90
2022-10-14T06:44:42.119Z,99.90
2022-10-14T06:47:11.166Z,99.90
2022-10-14T06:49:40.283Z,99.90
2022-10-14T06:52:09.602Z,99.90
2022-10-14T06:54:39.678Z,99.90
2022-10-14T06:57:10.946Z,99.90
2022-10-14T06:59:40.508Z,99.90
2022-10-14T07:02:10.343Z,99.50
2022-10-14T07:04:40.442Z,99.00
2022-10-14T07:07:10.012Z,98.80
2022-10-14T07:09:39.073Z,98.40
2022-10-14T07:12:09.693Z,98.10
2022-10-14T07:14:38.798Z,97.80
2022-10-14T07:17:09.338Z,97.40
2022-10-14T07:19:38.456Z,97.20
2022-10-14T07:22:07.589Z,97.20
2022-10-14T07:24:36.703Z,97.00
2022-10-14T07:27:05.942Z,97.00
2022-10-14T07:29:36.546Z,96.70
2022-10-14T07:32:06.133Z,96.60
2022-10-14T07:34:35.223Z,96.10
2022-10-14T07:37:04.655Z,95.30
2022-10-14T07:39:35.727Z,94.80
2022-10-14T07:42:04.962Z,94.10
2022-10-14T07:44:35.575Z,93.80
2022-10-14T07:47:06.168Z,93.90
2022-10-14T07:49:36.457Z,93.60
2022-10-14T07:52:05.837Z,93.50
2022-10-14T07:54:35.025Z,93.40
2022-10-14T07:57:04.487Z,93.00
2022-10-14T07:59:33.548Z,93.00
2022-10-14T08:02:05.460Z,93.30
2022-10-14T08:04:34.501Z,93.10
2022-10-14T08:07:04.934Z,92.80
2022-10-14T08:09:37.290Z,92.70
2022-10-14T08:12:06.765Z,92.30
2022-10-14T08:14:37.014Z,92.10
2022-10-14T08:17:07.527Z,91.50
2022-10-14T08:19:36.684Z,91.20
2022-10-14T08:22:05.735Z,91.70
2022-10-14T08:24:34.791Z,91.50
2022-10-14T08:27:05.835Z,91.40
2022-10-14T08:29:35.214Z,91.30
2022-10-14T08:32:04.160Z,90.60
2022-10-14T08:34:34.672Z,91.10
2022-10-14T08:37:03.984Z,91.30
2022-10-14T08:39:32.968Z,91.20
2022-10-14T08:42:18.207Z,91.20
2022-10-14T08:44:53.182Z,91.20
2022-10-14T08:47:27.175Z,90.60
2022-10-14T08:50:03.481Z,91.40
2022-10-14T08:52:39.137Z,91.00
2022-10-14T08:55:22.059Z,90.40
2022-10-14T08:57:55.188Z,90.00
2022-10-14T09:00:24.457Z,89.90
2022-10-14T09:02:54.172Z,90.50
2022-10-14T09:05:27.455Z,90.20
2022-10-14T09:07:58.508Z,89.30
2022-10-14T09:10:33.365Z,88.70
2022-10-14T09:13:10.532Z,88.70
2022-10-14T09:15:42.733Z,86.40
2022-10-14T09:18:24.576Z,87.10
2022-10-14T09:20:56.799Z,87.50
2022-10-14T09:23:27.019Z,87.50
2022-10-14T09:26:02.646Z,85.80
2022-10-14T09:28:38.712Z,85.30
2022-10-14T09:31:11.815Z,86.70
2022-10-14T09:33:42.639Z,84.10
2022-10-14T09:36:18.538Z,86.80
2022-10-14T09:38:51.914Z,85.80
2022-10-14T09:41:26.991Z,84.10
2022-10-14T09:44:18.697Z,82.40
2022-10-14T09:46:55.327Z,81.30
2022-10-14T09:49:35.477Z,82.30
2022-10-14T09:52:06.190Z,82.00
2022-10-14T09:54:36.890Z,81.00
2022-10-14T09:57:08.699Z,81.10
2022-10-14T09:59:50.979Z,81.00
2022-10-14T10:02:24.676Z,80.00
2022-10-14T10:04:58.313Z,78.80
2022-10-14T10:07:31.957Z,78.50
2022-10-14T10:10:02.845Z,76.40
2022-10-14T10:12:33.533Z,74.60
2022-10-14T10:15:05.072Z,75.50
2022-10-14T10:17:36.211Z,76.60
2022-10-14T10:20:18.158Z,76.70
2022-10-14T10:22:49.226Z,76.60
2022-10-14T10:25:26.595Z,75.80
2022-10-14T10:27:59.414Z,75.70
2022-10-14T10:30:33.746Z,74.70
2022-10-14T10:33:22.655Z,74.30
2022-10-14T10:36:02.358Z,72.40
2022-10-14T10:38:36.292Z,73.40
2022-10-14T10:41:18.581Z,68.70
2022-10-14T10:44:12.454Z,70.00
2022-10-14T10:47:01.132Z,71.20
2022-10-14T10:49:50.435Z,68.30
2022-10-14T10:52:31.019Z,66.30
2022-10-14T10:55:10.573Z,65.30
2022-10-14T10:57:53.086Z,67.20
2022-10-14T11:03:09.990Z,63.90
2022-10-14T11:05:51.558Z,63.50
2022-10-14T11:08:56.785Z,63.50
2022-10-14T11:11:48.039Z,61.60
2022-10-14T11:14:42.187Z,62.20
2022-10-14T11:17:16.179Z,62.20
2022-10-14T11:19:54.439Z,62.90
2022-10-14T11:22:39.119Z,60.80
2022-10-14T11:25:22.976Z,60.60
2022-10-14T11:28:03.025Z,61.00
2022-10-14T11:30:43.560Z,58.90
2022-10-14T11:33:25.686Z,60.50
2022-10-14T11:36:02.034Z,59.80
2022-10-14T11:38:54.624Z,57.50
2022-10-14T11:41:32.596Z,55.60
2022-10-14T11:44:09.406Z,55.60
2022-10-14T11:46:42.635Z,55.60
2022-10-14T11:49:20.205Z,56.50
2022-10-14T11:51:54.490Z,55.90
2022-10-14T11:54:30.219Z,56.90
2022-10-14T11:57:04.090Z,54.50
2022-10-14T12:00:01.425Z,55.50
2022-10-14T12:02:48.391Z,53.50
2022-10-14T12:05:24.341Z,53.70
2022-10-14T12:08:06.799Z,52.30
2022-10-14T12:10:40.542Z,50.40
2022-10-14T12:13:15.573Z,50.80
2022-10-14T12:15:50.991Z,50.20
2022-10-14T12:18:20.780Z,51.20
2022-10-14T12:20:57.021Z,52.60
2022-10-14T12:23:33.051Z,53.50
2022-10-14T12:26:08.587Z,50.50
2022-10-14T12:28:39.340Z,50.20
2022-10-14T12:31:36.836Z,50.00
2022-10-14T12:34:28.740Z,50.40
2022-10-14T12:36:58.550Z,51.00
2022-10-14T12:39:33.514Z,50.00
2022-10-14T12:42:05.896Z,50.60
2022-10-14T12:44:46.370Z,49.70
2022-10-14T12:47:22.441Z,51.60
2022-10-14T12:49:56.460Z,50.60
2022-10-14T12:52:31.055Z,50.20
2022-10-14T12:55:05.337Z,50.70
2022-10-14T12:57:38.707Z,49.90
2022-10-14T13:00:31.916Z,48.80
2022-10-14T13:03:05.220Z,48.40
2022-10-14T13:05:41.799Z,48.30
2022-10-14T13:08:27.266Z,46.90
2022-10-14T13:11:11.971Z,45.90
2022-10-14T13:14:01.525Z,46.20
2022-10-14T13:17:06.738Z,46.30
2022-10-14T13:19:54.723Z,46.60
2022-10-14T13:22:43.830Z,48.60
2022-10-14T13:25:19.468Z,49.80
2022-10-14T13:28:13.137Z,49.40
2022-10-14T13:30:52.795Z,50.40
2022-10-14T13:33:27.073Z,50.70
2022-10-14T13:36:05.897Z,51.60
2022-10-14T13:38:37.179Z,52.70
2022-10-14T13:41:07.945Z,51.90
2022-10-14T13:43:40.698Z,51.90
2022-10-14T13:46:15.442Z,51.60
2022-10-14T13:48:48.336Z,51.10
2022-10-14T13:51:37.317Z,52.80
2022-10-14T13:54:19.363Z,51.30
2022-10-14T14:02:48.091Z,52.20
2022-10-14T14:11:15.667Z,52.70
2022-10-14T14:13:55.833Z,53.40
2022-10-14T14:16:32.375Z,54.10
2022-10-14T14:19:10.274Z,54.40
2022-10-14T14:21:40.060Z,52.70
2022-10-14T14:24:19.663Z,53.50
2022-10-14T14:26:59.449Z,56.30
2022-10-14T14:29:30.609Z,56.10
2022-10-14T14:32:08.748Z,54.00
2022-10-14T14:34:40.199Z,54.40
2022-10-14T14:40:19.375Z,56.20
2022-10-14T14:42:51.725Z,56.50
2022-10-14T14:45:25.670Z,56.60
2022-10-14T14:47:57.024Z,56.80
2022-10-14T14:50:31.270Z,56.40
2022-10-14T14:53:05.475Z,55.60
2022-10-14T14:55:43.384Z,54.60
2022-10-14T14:58:26.164Z,54.30
2022-10-14T15:00:55.781Z,54.80
2022-10-14T15:03:26.781Z,54.90
2022-10-14T15:06:02.008Z,55.80
2022-10-14T15:08:33.973Z,56.40
2022-10-14T15:11:04.984Z,56.10
2022-10-14T15:13:46.610Z,56.60
2022-10-14T15:16:15.659Z,56.90
2022-10-14T15:18:44.641Z,57.00
2022-10-14T15:21:20.913Z,58.30
2022-10-14T15:24:03.561Z,58.00
2022-10-14T15:26:41.549Z,59.50
2022-10-14T15:29:17.056Z,58.70
2022-10-14T15:31:47.486Z,59.70
2022-10-14T15:34:22.674Z,60.00
2022-10-14T15:36:54.288Z,60.60
2022-10-14T15:39:24.157Z,61.40
2022-10-14T15:41:54.655Z,61.70
2022-10-14T15:44:23.780Z,61.70
2022-10-14T15:47:10.297Z,62.40
2022-10-14T15:49:46.714Z,63.10
2022-10-14T15:52:16.835Z,65.70
2022-10-14T15:54:47.791Z,67.10
2022-10-14T15:57:19.137Z,67.70
2022-10-14T15:59:53.018Z,68.40
2022-10-14T16:02:35.502Z,69.80
2022-10-14T16:05:20.738Z,70.00
2022-10-14T16:07:50.477Z,70.50
2022-10-14T16:10:22.284Z,70.80
2022-10-14T16:12:52.997Z,70.50
2022-10-14T16:15:34.479Z,71.00
2022-10-14T16:18:03.596Z,70.60
2022-10-14T16:20:33.191Z,70.50
2022-10-14T16:23:04.535Z,70.90
2022-10-14T16:25:39.092Z,71.70
2022-10-14T16:28:10.437Z,70.80
2022-10-14T16:30:41.609Z,70.10
2022-10-14T16:35:54.854Z,71.80
2022-10-14T16:38:25.168Z,73.40
2022-10-14T16:40:57.947Z,74.70
2022-10-14T16:43:29.026Z,75.70
2022-10-14T16:46:00.587Z,75.90
2022-10-14T16:48:29.661Z,76.80
2022-10-14T16:50:58.886Z,77.10
2022-10-14T16:53:43.773Z,77.70
2022-10-14T16:56:33.148Z,79.10
2022-10-14T16:59:04.022Z,80.70
2022-10-14T17:01:33.610Z,81.50
2022-10-14T17:04:04.213Z,82.50
2022-10-14T17:06:33.313Z,82.50
2022-10-14T17:09:02.423Z,83.50
2022-10-14T17:11:31.520Z,84.40
2022-10-14T17:14:03.264Z,84.90
2022-10-14T17:16:32.423Z,85.80
2022-10-14T17:19:03.187Z,87.50
2022-10-14T17:21:32.267Z,89.10
2022-10-14T17:24:02.906Z,90.10
2022-10-14T17:26:33.916Z,90.60
2022-10-14T17:29:04.673Z,90.80
2022-10-14T17:31:34.492Z,91.00
2022-10-14T17:34:04.074Z,91.20
2022-10-14T17:36:33.385Z,91.50
2022-10-14T17:39:02.442Z,91.80
2022-10-14T17:41:31.972Z,92.00
2022-10-14T17:44:02.205Z,91.90
2022-10-14T17:46:33.336Z,92.10
2022-10-14T17:49:04.134Z,92.70
2022-10-14T17:51:34.160Z,92.70
2022-10-14T17:54:05.105Z,93.20
2022-10-14T17:56:37.419Z,93.10
2022-10-14T17:59:08.438Z,93.10
2022-10-14T18:04:28.867Z,92.90
2022-10-14T18:06:58.838Z,93.90
2022-10-14T18:09:28.070Z,94.10
2022-10-14T18:12:13.453Z,94.60
2022-10-14T18:14:43.205Z,94.50
2022-10-14T18:17:14.227Z,94.40
2022-10-14T18:19:46.097Z,94.60
2022-10-14T18:22:17.522Z,94.70
2022-10-14T18:24:46.670Z,95.00
2022-10-14T18:27:15.667Z,95.30
2022-10-14T18:29:44.784Z,95.10
2022-10-14T18:32:15.295Z,95.80
2022-10-14T18:34:44.382Z,96.20
2022-10-14T18:37:14.756Z,96.70
2022-10-14T18:39:44.963Z,96.90
2022-10-14T18:42:17.129Z,96.80
2022-10-14T18:44:49.072Z,97.00
2022-10-14T18:47:19.624Z,97.50
2022-10-14T18:49:51.482Z,97.40
2022-10-14T18:52:21.412Z,97.60
2022-10-14T18:54:50.748Z,97.70
2022-10-14T18:57:19.867Z,97.70
2022-10-14T18:59:51.007Z,97.40
2022-10-14T19:02:21.954Z,97.10
2022-10-14T19:04:51.189Z,96.90
2022-10-14T19:07:20.375Z,96.60
2022-10-14T19:09:50.266Z,96.20
2022-10-14T19:12:37.238Z,96.30
2022-10-14T19:15:07.108Z,96.20
2022-10-14T19:17:37.673Z,96.50
2022-10-14T19:20:08.724Z,96.50
2022-10-14T19:22:44.966Z,96.20
2022-10-14T19:25:14.078Z,96.20
2022-10-14T19:27:43.168Z,96.10
2022-10-14T19:30:12.973Z,96.20
2022-10-14T19:32:43.593Z,96.50
2022-10-14T19:35:12.677Z,96.10
2022-10-14T19:37:41.758Z,96.40
2022-10-14T19:40:11.664Z,96.60
2022-10-14T19:42:40.746Z,96.70
2022-10-14T19:45:10.375Z,96.80
2022-10-14T19:47:39.693Z,97.10
2022-10-14T19:50:11.248Z,97.30
2022-10-14T19:52:40.373Z,97.50
2022-10-14T19:55:10.377Z,97.60
2022-10-14T19:57:39.357Z,97.10
2022-10-14T20:00:09.855Z,96.80
2022-10-14T20:05:10.173Z,96.60
2022-10-14T20:07:39.195Z,96.50
2022-10-14T20:10:09.176Z,97.10
2022-10-14T20:12:38.328Z,97.40
2022-10-14T20:16:35.223Z,98.30
2022-10-14T20:19:04.377Z,98.10
2022-10-14T20:21:33.553Z,98.20
2022-10-14T20:24:02.610Z,98.10
2022-10-14T20:26:31.723Z,98.00
2022-10-14T20:29:00.920Z,98.50
2022-10-14T20:31:30.104Z,98.60
2022-10-14T20:34:00.660Z,99.10
2022-10-14T20:36:29.799Z,99.90
2022-10-14T20:38:58.834Z,99.90
2022-10-14T20:41:28.873Z,99.90
2022-10-14T20:43:58.783Z,99.90
2022-10-14T20:46:28.029Z,99.90
2022-10-14T20:48:57.818Z,99.50
2022-10-14T20:51:28.796Z,99.30
2022-10-14T20:54:02.697Z,99.10
2022-10-14T20:56:35.667Z,99.10
2022-10-14T20:59:06.698Z,98.60
2022-10-14T21:01:37.724Z,99.20
2022-10-14T21:04:08.737Z,99.60
2022-10-14T21:06:42.586Z,99.90
2022-10-14T21:09:12.054Z,99.90
2022-10-14T21:11:41.801Z,99.90
2022-10-14T21:14:12.088Z,99.90
2022-10-14T21:16:42.520Z,99.80
2022-10-14T21:19:12.807Z,99.50
2022-10-14T21:21:45.568Z,99.20
2022-10-14T21:24:17.054Z,99.70
2022-10-14T21:26:48.108Z,99.70
2022-10-14T21:29:17.352Z,99.90
2022-10-14T21:31:46.484Z,99.50
2022-10-14T21:34:15.994Z,99.60
2022-10-14T21:36:46.647Z,99.30
2022-10-14T21:39:18.382Z,98.90
2022-10-14T21:41:47.709Z,98.80
2022-10-14T21:44:19.250Z,98.60
2022-10-14T21:46:49.106Z,98.30
2022-10-14T21:49:18.414Z,98.10
2022-10-14T21:51:48.947Z,98.20
2022-10-14T21:54:18.087Z,98.10
2022-10-14T21:56:47.151Z,98.00
2022-10-14T21:59:16.456Z,98.00
2022-10-14T22:01:45.533Z,97.90
2022-10-14T22:04:14.577Z,97.50
2022-10-14T22:06:43.728Z,97.60
2022-10-14T22:09:14.206Z,98.00
2022-10-14T22:11:43.603Z,98.20
2022-10-14T22:14:14.516Z,98.10
2022-10-14T22:16:43.666Z,98.10
2022-10-14T22:19:13.554Z,98.40
2022-10-14T22:21:45.232Z,98.70
2022-10-14T22:24:16.067Z,98.70
2022-10-14T22:26:45.219Z,98.90
2022-10-14T22:29:17.035Z,98.80
2022-10-14T22:31:46.903Z,99.20
2022-10-14T22:34:18.556Z,99.40
2022-10-14T22:36:47.581Z,99.50
2022-10-14T22:39:19.043Z,99.40
2022-10-14T22:41:48.126Z,99.50
2022-10-14T22:44:17.157Z,99.50
2022-10-14T22:46:46.796Z,99.50
2022-10-14T22:49:15.927Z,99.60
2022-10-14T22:51:45.007Z,99.40
2022-10-14T22:54:14.422Z,99.10
2022-10-14T22:56:44.976Z,99.10
2022-10-14T22:59:14.368Z,99.30
2022-10-14T23:01:44.670Z,99.30
2022-10-14T23:04:13.846Z,99.60
2022-10-14T23:06:45.134Z,99.90
2022-10-14T23:09:14.202Z,99.90
2022-10-14T23:11:44.796Z,99.90
2022-10-14T23:14:14.043Z,99.90
2022-10-14T23:16:43.347Z,99.90
2022-10-14T23:19:12.403Z,99.90
2022-10-14T23:21:41.747Z,99.90
2022-10-14T23:24:13.333Z,99.90
2022-10-14T23:26:43.949Z,99.90
2022-10-14T23:29:13.873Z,99.90
2022-10-14T23:31:43.264Z,99.90
2022-10-14T23:34:14.976Z,99.90
2022-10-14T23:36:44.484Z,99.90
2022-10-14T23:39:13.753Z,99.90
2022-10-14T23:41:45.005Z,99.90
2022-10-14T23:44:14.193Z,99.90
2022-10-14T23:46:43.222Z,99.90
2022-10-14T23:49:25.514Z,99.90
2022-10-14T23:51:55.649Z,99.90
2022-10-14T23:54:24.767Z,99.90
2022-10-14T23:56:55.489Z,99.90
2022-10-14T23:59:24.616Z,99.90
